createdAt,value
2022-11-02T00:02:18.955Z,2.42
2022-11-02T00:04:45.629Z,2.30
2022-11-02T00:07:14.681Z,1.63
2022-11-02T00:09:41.423Z,1.70
2022-11-02T00:12:08.424Z,2.10
2022-11-02T00:14:35.109Z,1.58
2022-11-02T00:17:02.014Z,1.50
2022-11-02T00:19:32.293Z,1.73
2022-11-02T00:22:01.856Z,1.90
2022-11-02T00:24:29.027Z,2.08
2022-11-02T00:26:55.767Z,1.80
2022-11-02T00:29:24.268Z,1.52
2022-11-02T00:31:51.441Z,1.98
2022-11-02T00:34:18.155Z,1.67
2022-11-02T00:36:50.592Z,2.65
2022-11-02T00:39:20.086Z,1.80
2022-11-02T00:41:46.734Z,1.73
2022-11-02T00:44:13.415Z,1.80
2022-11-02T00:46:40.217Z,2.03
2022-11-02T00:49:06.864Z,1.88
2022-11-02T00:51:33.513Z,2.22
2022-11-02T00:54:00.168Z,1.90
2022-11-02T00:56:26.829Z,2.17
2022-11-02T00:58:53.483Z,1.80
2022-11-02T01:01:20.315Z,2.03
2022-11-02T01:03:47.098Z,2.03
2022-11-02T01:06:15.784Z,2.00
2022-11-02T01:08:44.699Z,2.17
2022-11-02T01:11:22.384Z,2.13
2022-11-02T01:13:50.980Z,1.85
2022-11-02T01:16:17.913Z,2.22
2022-11-02T01:18:44.767Z,2.17
2022-11-02T01:21:11.490Z,2.25
2022-11-02T01:23:38.568Z,1.55
2022-11-02T01:26:09.701Z,1.45
2022-11-02T01:28:39.582Z,1.67
2022-11-02T01:33:33.618Z,2.72
2022-11-02T01:36:04.199Z,1.48
2022-11-02T01:38:31.771Z,2.17
2022-11-02T01:40:59.085Z,1.90
2022-11-02T01:43:32.079Z,2.05
2022-11-02T01:46:10.451Z,1.88
2022-11-02T01:48:39.762Z,2.33
2022-11-02T01:51:12.690Z,2.03
2022-11-02T01:53:46.751Z,1.80
2022-11-02T01:56:17.876Z,2.22
2022-11-02T01:58:51.680Z,2.35
2022-11-02T02:01:18.459Z,2.60
2022-11-02T02:03:46.114Z,2.00
2022-11-02T02:06:14.717Z,2.50
2022-11-02T02:08:47.332Z,1.58
2022-11-02T02:11:35.798Z,2.38
2022-11-02T02:14:17.365Z,1.45
2022-11-02T02:17:02.195Z,1.90
2022-11-02T02:19:34.736Z,1.92
2022-11-02T02:22:13.440Z,2.08
2022-11-02T02:25:17.552Z,1.45
2022-11-02T02:28:21.970Z,1.88
2022-11-02T02:30:58.471Z,1.63
2022-11-02T02:33:34.191Z,2.13
2022-11-02T02:36:10.724Z,1.77
2022-11-02T02:39:12.229Z,2.38
2022-11-02T02:41:58.296Z,1.95
2022-11-02T02:44:29.490Z,2.10
2022-11-02T02:47:01.407Z,2.35
2022-11-02T02:50:01.130Z,1.90
2022-11-02T02:52:32.521Z,2.00
2022-11-02T02:55:01.539Z,1.77
2022-11-02T02:57:31.439Z,1.87
2022-11-02T02:59:58.754Z,1.85
2022-11-02T03:02:31.686Z,1.83
2022-11-02T03:04:58.608Z,1.67
2022-11-02T03:07:34.249Z,2.15
2022-11-02T03:10:11.595Z,2.00
2022-11-02T03:12:38.207Z,2.05
2022-11-02T03:15:24.688Z,2.47
2022-11-02T03:18:10.196Z,1.73
2022-11-02T03:20:39.688Z,1.75
2022-11-02T03:23:26.337Z,2.03
2022-11-02T03:26:14.660Z,2.30
2022-11-02T03:29:03.416Z,2.20
2022-11-02T03:31:46.454Z,2.70
2022-11-02T03:34:28.661Z,1.63
2022-11-02T03:37:05.205Z,1.90
2022-11-02T03:39:41.132Z,2.78
2022-11-02T03:42:13.688Z,2.20
2022-11-02T03:44:41.502Z,1.98
2022-11-02T03:47:15.221Z,2.10
2022-11-02T03:49:44.168Z,2.03
2022-11-02T03:52:16.429Z,2.30
2022-11-02T03:54:51.640Z,1.83
2022-11-02T03:57:35.921Z,1.85
2022-11-02T04:00:14.620Z,2.40
2022-11-02T04:02:44.632Z,1.98
2022-11-02T04:05:11.739Z,2.20
2022-11-02T04:07:59.748Z,2.28
2022-11-02T04:10:26.669Z,2.38
2022-11-02T04:13:12.068Z,2.05
2022-11-02T04:15:41.344Z,1.92
2022-11-02T04:18:26.570Z,2.08
2022-11-02T04:20:55.824Z,2.28
2022-11-02T04:23:40.982Z,2.17
2022-11-02T04:26:10.044Z,1.67
2022-11-02T04:28:36.761Z,2.20
2022-11-02T04:31:03.448Z,1.80
2022-11-02T04:33:35.576Z,2.25
2022-11-02T04:36:07.349Z,1.98
2022-11-02T04:38:40.257Z,2.42
2022-11-02T04:41:30.647Z,2.05
2022-11-02T04:44:00.118Z,2.35
2022-11-02T04:46:33.769Z,1.90
2022-11-02T04:49:00.662Z,2.15
2022-11-02T04:51:32.545Z,1.80
2022-11-02T04:53:59.681Z,1.80
2022-11-02T04:56:28.053Z,1.75
2022-11-02T04:58:57.479Z,1.90
2022-11-02T05:01:26.654Z,2.10
2022-11-02T05:03:54.739Z,2.10
2022-11-02T05:06:26.610Z,2.03
2022-11-02T05:08:55.771Z,1.95
2022-11-02T05:11:24.904Z,1.90
2022-11-02T05:13:51.572Z,2.40
2022-11-02T05:16:18.302Z,2.53
2022-11-02T05:18:45.013Z,2.30
2022-11-02T05:21:12.449Z,2.20
2022-11-02T05:23:39.621Z,2.35
2022-11-02T05:26:12.372Z,2.22
2022-11-02T05:28:39.411Z,2.25
2022-11-02T05:31:06.685Z,2.38
2022-11-02T05:33:36.388Z,2.05
2022-11-02T05:36:03.636Z,2.60
2022-11-02T05:38:32.946Z,1.95
2022-11-02T05:41:00.237Z,2.40
2022-11-02T05:43:27.326Z,1.95
2022-11-02T05:45:54.813Z,2.30
2022-11-02T05:48:22.704Z,2.15
2022-11-02T05:50:50.044Z,2.45
2022-11-02T05:53:19.110Z,2.40
2022-11-02T05:55:45.813Z,2.17
2022-11-02T05:58:15.026Z,1.85
2022-11-02T06:00:41.717Z,2.22
2022-11-02T06:03:08.553Z,2.17
2022-11-02T06:05:35.508Z,2.60
2022-11-02T06:08:02.833Z,1.95
2022-11-02T06:10:30.325Z,2.10
2022-11-02T06:13:04.725Z,2.40
2022-11-02T06:15:32.666Z,2.25
2022-11-02T06:17:59.951Z,1.90
2022-11-02T06:20:26.790Z,2.72
2022-11-02T06:22:55.685Z,2.38
2022-11-02T06:25:24.723Z,2.95
2022-11-02T06:27:58.829Z,1.70
2022-11-02T06:30:25.838Z,1.95
2022-11-02T06:32:53.936Z,1.95
2022-11-02T06:35:23.540Z,3.53
2022-11-02T06:37:50.298Z,2.08
2022-11-02T06:40:18.420Z,2.55
2022-11-02T06:43:03.437Z,2.10
2022-11-02T06:45:34.142Z,2.20
2022-11-02T06:48:01.784Z,2.25
2022-11-02T06:50:30.888Z,2.35
2022-11-02T06:52:57.576Z,2.30
2022-11-02T06:55:24.681Z,2.33
2022-11-02T06:57:53.651Z,2.10
2022-11-02T07:00:23.743Z,1.97
2022-11-02T07:03:09.578Z,2.00
2022-11-02T07:05:37.199Z,1.80
2022-11-02T07:08:04.349Z,2.33
2022-11-02T07:10:31.606Z,3.13
2022-11-02T07:12:58.581Z,2.92
2022-11-02T07:15:26.418Z,3.28
2022-11-02T07:17:54.396Z,2.33
2022-11-02T07:20:23.435Z,2.47
2022-11-02T07:23:01.788Z,2.33
2022-11-02T07:25:33.795Z,2.20
2022-11-02T07:28:04.100Z,2.25
2022-11-02T07:30:32.471Z,1.98
2022-11-02T07:33:02.082Z,1.90
2022-11-02T07:35:28.966Z,2.25
2022-11-02T07:38:04.684Z,2.47
2022-11-02T07:40:33.545Z,2.47
2022-11-02T07:43:00.547Z,1.75
2022-11-02T07:45:29.176Z,1.88
2022-11-02T07:47:56.000Z,1.70
2022-11-02T07:50:24.062Z,1.90
2022-11-02T07:52:55.129Z,2.38
2022-11-02T07:55:27.377Z,2.47
2022-11-02T07:57:57.820Z,2.10
2022-11-02T08:00:26.629Z,2.10
2022-11-02T08:02:58.290Z,2.25
2022-11-02T08:05:26.591Z,2.28
2022-11-02T08:08:04.748Z,1.85
2022-11-02T08:10:37.042Z,2.00
2022-11-02T08:13:07.929Z,1.75
2022-11-02T08:15:34.664Z,1.70
2022-11-02T08:18:37.897Z,1.73
2022-11-02T08:21:04.661Z,2.10
2022-11-02T08:23:31.371Z,2.10
2022-11-02T08:26:00.143Z,1.77
2022-11-02T08:28:31.593Z,1.98
2022-11-02T08:31:02.234Z,1.95
2022-11-02T08:33:31.265Z,2.20
2022-11-02T08:36:04.865Z,2.03
2022-11-02T08:38:32.292Z,2.05
2022-11-02T08:40:58.946Z,2.38
2022-11-02T08:43:27.964Z,2.28
2022-11-02T08:46:17.497Z,2.07
2022-11-02T08:48:47.204Z,1.80
2022-11-02T08:51:13.866Z,2.20
2022-11-02T08:53:40.813Z,1.77
2022-11-02T08:56:09.815Z,1.65
2022-11-02T08:58:36.528Z,2.00
2022-11-02T09:01:03.422Z,2.33
2022-11-02T09:03:30.442Z,1.70
2022-11-02T09:06:03.890Z,1.80
2022-11-02T09:08:30.763Z,1.88
2022-11-02T09:11:03.333Z,1.90
2022-11-02T09:13:30.182Z,1.90
2022-11-02T09:15:58.875Z,2.33
2022-11-02T09:18:28.517Z,1.80
2022-11-02T09:20:55.595Z,1.80
2022-11-02T09:23:22.976Z,2.30
2022-11-02T09:25:50.585Z,1.83
2022-11-02T09:28:19.784Z,1.77
2022-11-02T09:30:46.612Z,1.98
2022-11-02T09:33:13.486Z,1.40
2022-11-02T09:35:45.479Z,1.80
2022-11-02T09:38:12.938Z,2.53
2022-11-02T09:40:41.210Z,2.00
2022-11-02T09:43:32.359Z,1.92
2022-11-02T09:46:19.140Z,2.10
2022-11-02T09:48:51.291Z,2.17
2022-11-02T09:51:22.440Z,2.10
2022-11-02T09:54:17.863Z,2.60
2022-11-02T09:56:48.399Z,1.75
2022-11-02T09:59:20.493Z,1.92
2022-11-02T10:02:05.763Z,1.30
2022-11-02T10:04:53.976Z,1.70
2022-11-02T10:07:36.455Z,1.70
2022-11-02T10:10:05.414Z,1.85
2022-11-02T10:12:55.544Z,2.27
2022-11-02T10:15:44.881Z,2.25
2022-11-02T10:18:22.001Z,1.98
2022-11-02T10:20:55.924Z,1.80
2022-11-02T10:23:36.713Z,1.70
2022-11-02T10:26:03.660Z,2.08
2022-11-02T10:28:38.792Z,1.25
2022-11-02T10:31:27.107Z,2.15
2022-11-02T10:34:00.919Z,2.08
2022-11-02T10:36:40.179Z,1.60
2022-11-02T10:39:26.733Z,1.42
2022-11-02T10:42:01.281Z,1.90
2022-11-02T10:44:49.624Z,2.03
2022-11-02T10:47:22.314Z,1.60
2022-11-02T10:50:30.321Z,1.88
2022-11-02T10:53:20.313Z,1.55
2022-11-02T10:55:59.405Z,1.80
2022-11-02T10:58:30.559Z,2.67
2022-11-02T11:01:13.314Z,1.95
2022-11-02T11:03:53.431Z,1.98
2022-11-02T11:06:20.760Z,1.85
2022-11-02T11:08:49.912Z,2.53
2022-11-02T11:11:25.671Z,2.53
2022-11-02T11:19:56.807Z,1.60
2022-11-02T11:22:38.568Z,2.30
2022-11-02T11:25:13.814Z,2.95
2022-11-02T11:27:57.746Z,1.85
2022-11-02T11:30:59.524Z,1.75
2022-11-02T11:33:20.862Z,1.60
2022-11-02T11:35:52.744Z,1.73
2022-11-02T11:38:26.062Z,1.80
2022-11-02T11:40:59.860Z,1.80
2022-11-02T11:43:29.569Z,1.45
2022-11-02T11:48:50.451Z,1.52
2022-11-02T11:51:37.364Z,1.70
2022-11-02T11:54:24.102Z,1.92
2022-11-02T11:56:58.708Z,1.65
2022-11-02T11:59:46.612Z,1.30
2022-11-02T12:02:27.531Z,2.25
2022-11-02T12:05:17.889Z,1.85
2022-11-02T12:07:55.721Z,1.92
2022-11-02T12:10:34.629Z,1.70
2022-11-02T12:13:19.127Z,1.85
2022-11-02T12:15:58.593Z,1.73
2022-11-02T12:18:34.558Z,1.42
2022-11-02T12:21:18.174Z,2.10
2022-11-02T12:24:02.730Z,1.75
2022-11-02T12:26:35.574Z,2.20
2022-11-02T12:29:23.956Z,1.95
2022-11-02T12:32:18.197Z,1.60
2022-11-02T12:35:29.505Z,1.73
2022-11-02T12:38:05.205Z,1.73
2022-11-02T12:40:50.742Z,2.35
2022-11-02T12:43:49.989Z,2.30
2022-11-02T12:46:48.567Z,1.83
2022-11-02T12:49:35.466Z,1.60
2022-11-02T12:52:30.620Z,1.90
2022-11-02T12:55:00.990Z,1.02
2022-11-02T12:57:33.949Z,1.50
2022-11-02T13:00:04.208Z,1.60
2022-11-02T13:02:38.308Z,1.95
2022-11-02T13:05:22.788Z,1.70
2022-11-02T13:08:03.564Z,1.50
2022-11-02T13:10:38.755Z,1.92
2022-11-02T13:13:12.087Z,1.95
2022-11-02T13:15:40.083Z,1.23
2022-11-02T13:18:30.823Z,1.52
2022-11-02T13:21:00.880Z,1.77
2022-11-02T13:23:56.566Z,1.60
2022-11-02T13:26:28.065Z,2.35
2022-11-02T13:29:22.178Z,1.58
2022-11-02T13:32:00.301Z,1.83
2022-11-02T13:34:43.677Z,2.08
2022-11-02T13:37:19.999Z,1.55
2022-11-02T13:39:53.529Z,1.90
2022-11-02T13:42:34.532Z,1.98
2022-11-02T13:45:40.716Z,1.65
2022-11-02T13:48:25.826Z,1.88
2022-11-02T13:50:59.343Z,1.83
2022-11-02T13:53:37.151Z,1.45
2022-11-02T13:56:20.775Z,1.40
2022-11-02T13:58:56.044Z,1.77
2022-11-02T14:01:23.654Z,1.50
2022-11-02T14:04:05.290Z,1.80
2022-11-02T14:06:43.878Z,1.58
2022-11-02T14:09:18.799Z,1.80
2022-11-02T14:11:49.641Z,1.85
2022-11-02T14:14:22.936Z,2.15
2022-11-02T14:16:49.739Z,2.10
2022-11-02T14:19:19.160Z,2.10
2022-11-02T14:21:46.667Z,1.75
2022-11-02T14:24:32.237Z,1.98
2022-11-02T14:27:14.068Z,2.40
2022-11-02T14:29:49.190Z,2.10
2022-11-02T14:32:22.334Z,1.60
2022-11-02T14:35:13.762Z,2.90
2022-11-02T14:37:59.417Z,1.60
2022-11-02T14:40:36.300Z,1.73
2022-11-02T14:43:30.259Z,1.75
2022-11-02T14:46:46.191Z,1.55
2022-11-02T14:49:34.303Z,1.30
2022-11-02T14:52:21.179Z,1.90
2022-11-02T14:54:51.146Z,1.48
2022-11-02T14:57:29.615Z,1.67
2022-11-02T14:59:59.200Z,1.33
2022-11-02T15:02:38.697Z,1.65
2022-11-02T15:05:22.810Z,1.70
2022-11-02T15:07:58.303Z,1.27
2022-11-02T15:10:31.036Z,1.50
2022-11-02T15:13:19.334Z,1.58
2022-11-02T15:15:52.118Z,1.45
2022-11-02T15:18:34.641Z,1.67
2022-11-02T15:21:10.228Z,1.35
2022-11-02T15:23:55.461Z,1.77
2022-11-02T15:26:48.688Z,1.63
2022-11-02T15:29:44.069Z,1.50
2022-11-02T15:32:22.890Z,1.13
2022-11-02T15:34:52.245Z,1.60
2022-11-02T15:37:34.645Z,1.23
2022-11-02T15:40:19.255Z,2.00
2022-11-02T15:42:52.209Z,1.60
2022-11-02T15:45:42.112Z,1.23
2022-11-02T15:48:42.612Z,1.25
2022-11-02T15:51:36.966Z,1.67
2022-11-02T15:54:33.862Z,1.80
2022-11-02T15:57:24.963Z,1.42
2022-11-02T16:00:21.690Z,1.50
2022-11-02T16:02:54.232Z,2.20
2022-11-02T16:05:26.735Z,1.58
2022-11-02T16:08:15.624Z,1.42
2022-11-02T16:10:42.394Z,1.60
2022-11-02T16:13:19.260Z,1.73
2022-11-02T16:15:48.731Z,1.40
2022-11-02T16:18:27.392Z,1.60
2022-11-02T16:21:01.896Z,2.03
2022-11-02T16:23:36.813Z,1.77
2022-11-02T16:26:09.328Z,1.52
2022-11-02T16:28:39.304Z,1.67
2022-11-02T16:31:19.427Z,1.70
2022-11-02T16:33:56.196Z,1.63
2022-11-02T16:36:24.043Z,1.30
2022-11-02T16:39:13.626Z,1.98
2022-11-02T16:41:41.085Z,1.83
2022-11-02T16:44:16.893Z,1.42
2022-11-02T16:46:55.419Z,2.80
2022-11-02T16:49:24.300Z,1.65
2022-11-02T16:51:52.476Z,1.55
2022-11-02T16:54:31.383Z,2.38
2022-11-02T16:57:11.553Z,1.88
2022-11-02T17:00:00.281Z,1.80
2022-11-02T17:02:33.305Z,2.17
2022-11-02T17:05:05.893Z,1.85
2022-11-02T17:07:38.814Z,2.00
2022-11-02T17:10:07.389Z,1.80
2022-11-02T17:12:43.388Z,1.83
2022-11-02T17:15:25.271Z,2.10
2022-11-02T17:18:11.890Z,1.83
2022-11-02T17:20:40.187Z,2.80
2022-11-02T17:23:09.362Z,2.08
2022-11-02T17:25:38.023Z,2.10
2022-11-02T17:28:40.960Z,2.70
2022-11-02T17:31:19.053Z,2.38
2022-11-02T17:33:46.672Z,2.95
2022-11-02T17:36:16.244Z,2.50
2022-11-02T17:38:47.665Z,2.70
2022-11-02T17:41:36.540Z,3.08
2022-11-02T17:44:09.621Z,2.88
2022-11-02T17:46:37.108Z,2.70
2022-11-02T17:49:04.360Z,2.92
2022-11-02T17:51:31.027Z,2.15
2022-11-02T17:53:57.654Z,2.30
2022-11-02T17:56:24.440Z,2.80
2022-11-02T17:58:51.084Z,2.40
2022-11-02T18:01:18.638Z,2.17
2022-11-02T18:03:45.377Z,2.88
2022-11-02T18:06:14.337Z,2.88
2022-11-02T18:08:59.588Z,2.72
2022-11-02T18:11:26.829Z,2.40
2022-11-02T18:13:56.091Z,3.00
2022-11-02T18:16:25.252Z,2.35
2022-11-02T18:18:51.954Z,2.85
2022-11-02T18:21:18.662Z,2.63
2022-11-02T18:23:45.348Z,2.58
2022-11-02T18:26:12.655Z,2.45
2022-11-02T18:28:39.556Z,2.47
2022-11-02T18:31:07.527Z,2.75
2022-11-02T18:33:34.537Z,2.78
2022-11-02T18:36:06.191Z,3.58
2022-11-02T18:38:35.626Z,2.70
2022-11-02T18:41:29.605Z,3.33
2022-11-02T18:44:13.554Z,2.08
2022-11-02T18:46:41.998Z,3.20
2022-11-02T18:49:11.267Z,2.78
2022-11-02T18:51:38.031Z,3.15
2022-11-02T18:54:07.349Z,2.75
2022-11-02T18:56:36.441Z,2.77
2022-11-02T18:59:06.047Z,3.00
2022-11-02T19:01:32.986Z,3.10
2022-11-02T19:04:00.700Z,3.28
2022-11-02T19:06:48.691Z,2.83
2022-11-02T19:09:20.093Z,2.85
2022-11-02T19:12:07.100Z,2.60
2022-11-02T19:14:39.079Z,2.50
2022-11-02T19:17:07.275Z,2.92
2022-11-02T19:19:34.270Z,2.70
2022-11-02T19:22:01.707Z,2.30
2022-11-02T19:24:28.398Z,2.70
2022-11-02T19:27:00.446Z,2.45
2022-11-02T19:29:29.609Z,2.47
2022-11-02T19:31:58.482Z,3.08
2022-11-02T19:34:25.214Z,3.45
2022-11-02T19:36:52.075Z,2.67
2022-11-02T19:39:18.723Z,2.42
2022-11-02T19:41:48.629Z,3.03
2022-11-02T19:49:11.037Z,3.35
2022-11-02T19:51:37.872Z,2.90
2022-11-02T19:54:04.827Z,3.28
2022-11-02T19:56:35.818Z,2.80
2022-11-02T19:59:03.774Z,3.30
2022-11-02T20:01:35.660Z,3.38
2022-11-02T20:04:05.230Z,3.45
2022-11-02T20:06:42.154Z,3.20
2022-11-02T20:09:14.990Z,3.17
2022-11-02T20:11:44.729Z,3.15
2022-11-02T20:14:15.574Z,2.90
2022-11-02T20:16:42.516Z,2.80
2022-11-02T20:19:10.049Z,2.65
2022-11-02T20:21:42.782Z,2.75
2022-11-02T20:24:10.425Z,2.88
2022-11-02T20:26:38.476Z,2.83
2022-11-02T20:29:12.418Z,2.47
2022-11-02T20:31:42.280Z,3.40
2022-11-02T20:34:09.306Z,2.75
2022-11-02T20:36:36.358Z,2.80
2022-11-02T20:39:07.398Z,2.38
2022-11-02T20:41:34.241Z,2.58
2022-11-02T20:44:03.364Z,2.58
2022-11-02T20:46:38.277Z,2.63
2022-11-02T20:49:21.104Z,2.60
2022-11-02T20:51:50.627Z,3.80
2022-11-02T20:54:19.476Z,3.78
2022-11-02T20:56:46.667Z,2.95
2022-11-02T20:59:18.124Z,3.08
2022-11-02T21:01:45.273Z,3.10
2022-11-02T21:04:18.667Z,2.70
2022-11-02T21:06:49.913Z,2.90
2022-11-02T21:09:17.351Z,3.13
2022-11-02T21:12:05.049Z,3.15
2022-11-02T21:14:31.860Z,2.70
2022-11-02T21:16:58.605Z,2.10
2022-11-02T21:19:25.246Z,2.55
2022-11-02T21:21:59.400Z,2.70
2022-11-02T21:24:27.311Z,2.65
2022-11-02T21:26:56.606Z,2.42
2022-11-02T21:29:23.416Z,2.75
2022-11-02T21:31:50.183Z,2.70
2022-11-02T21:34:16.870Z,2.85
2022-11-02T21:36:43.624Z,2.63
2022-11-02T21:39:10.387Z,2.60
2022-11-02T21:41:38.799Z,2.40
2022-11-02T21:44:09.609Z,2.50
2022-11-02T21:46:36.348Z,2.25
2022-11-02T21:49:06.681Z,2.05
2022-11-02T21:51:34.801Z,3.90
2022-11-02T21:54:01.482Z,2.55
2022-11-02T21:56:31.866Z,2.50
2022-11-02T21:58:58.741Z,2.70
2022-11-02T22:01:49.644Z,2.15
2022-11-02T22:04:28.316Z,2.28
2022-11-02T22:06:56.017Z,3.08
2022-11-02T22:09:22.806Z,2.20
2022-11-02T22:12:09.572Z,2.40
2022-11-02T22:14:37.656Z,2.20
2022-11-02T22:17:16.214Z,2.20
2022-11-02T22:19:45.708Z,2.23
2022-11-02T22:22:12.428Z,2.33
2022-11-02T22:24:44.727Z,2.58
2022-11-02T22:27:14.345Z,2.42
2022-11-02T22:29:40.991Z,2.50
2022-11-02T22:32:07.710Z,2.80
2022-11-02T22:34:36.778Z,2.63
2022-11-02T22:37:21.950Z,3.20
2022-11-02T22:39:48.599Z,2.70
2022-11-02T22:42:15.266Z,2.95
2022-11-02T22:44:44.293Z,3.00
2022-11-02T22:47:10.988Z,2.70
2022-11-02T22:49:37.784Z,2.80
2022-11-02T22:52:04.511Z,3.15
2022-11-02T22:54:31.172Z,3.05
2022-11-02T22:56:57.829Z,3.10
2022-11-02T22:59:29.344Z,3.45
2022-11-02T23:01:56.192Z,3.63
2022-11-02T23:04:22.924Z,4.18
2022-11-02T23:06:52.025Z,3.13
2022-11-02T23:09:21.480Z,3.83
2022-11-02T23:11:50.654Z,3.67
2022-11-02T23:14:17.781Z,3.55
2022-11-02T23:16:47.667Z,3.92
2022-11-02T23:22:21.410Z,4.07
2022-11-02T23:25:09.032Z,4.57
2022-11-02T23:27:58.617Z,4.28
2022-11-02T23:30:51.800Z,4.43
2022-11-02T23:33:19.200Z,3.83
2022-11-02T23:36:06.758Z,4.10
2022-11-02T23:38:52.198Z,3.42
2022-11-02T23:41:19.813Z,3.58
2022-11-02T23:43:46.865Z,3.63
2022-11-02T23:46:14.274Z,3.78
2022-11-02T23:48:47.074Z,3.20
2022-11-02T23:51:35.300Z,3.38
2022-11-02T23:54:20.714Z,3.63
2022-11-02T23:56:47.669Z,2.60
2022-11-02T23:59:17.377Z,2.75
